createdAt,value
2023-05-06T00:01:43.899Z,10.39
2023-05-06T00:04:11.298Z,10.32
2023-05-06T00:06:38.816Z,10.28
2023-05-06T00:09:06.336Z,10.23
2023-05-06T00:11:33.788Z,10.20
2023-05-06T00:14:01.181Z,10.16
2023-05-06T00:16:28.660Z,10.09
2023-05-06T00:18:56.568Z,10.04
2023-05-06T00:21:24.187Z,10.02
2023-05-06T00:23:51.499Z,10.01
2023-05-06T00:26:18.910Z,9.97
2023-05-06T00:28:46.436Z,9.93
2023-05-06T00:31:13.792Z,9.89
2023-05-06T00:33:41.820Z,9.87
2023-05-06T00:36:09.492Z,9.84
2023-05-06T00:38:38.047Z,9.80
2023-05-06T00:41:05.709Z,9.78
2023-05-06T00:43:33.177Z,9.76
2023-05-06T00:46:01.050Z,9.74
2023-05-06T00:48:28.747Z,9.74
2023-05-06T00:50:56.401Z,9.73
2023-05-06T00:53:24.006Z,9.73
2023-05-06T00:55:51.584Z,9.73
2023-05-06T00:58:20.340Z,9.72
2023-05-06T01:00:48.019Z,9.72
2023-05-06T01:03:15.407Z,9.72
2023-05-06T01:06:12.658Z,9.73
2023-05-06T01:08:59.408Z,9.72
2023-05-06T01:11:53.018Z,9.70
2023-05-06T01:14:33.524Z,9.68
2023-05-06T01:17:06.521Z,9.62
2023-05-06T01:19:35.069Z,9.55
2023-05-06T01:22:03.767Z,9.49
2023-05-06T01:24:41.903Z,9.43
2023-05-06T01:27:09.346Z,9.38
2023-05-06T01:29:37.936Z,9.36
2023-05-06T01:32:33.580Z,9.34
2023-05-06T01:35:07.623Z,9.32
2023-05-06T01:37:49.164Z,9.29
2023-05-06T01:40:16.744Z,9.27
2023-05-06T01:42:44.761Z,9.24
2023-05-06T01:45:11.695Z,9.20
2023-05-06T01:47:38.678Z,9.18
2023-05-06T01:50:06.689Z,9.16
2023-05-06T01:52:33.562Z,9.15
2023-05-06T01:55:00.500Z,9.14
2023-05-06T01:57:28.666Z,9.13
2023-05-06T01:59:55.725Z,9.13
2023-05-06T02:02:24.414Z,9.12
2023-05-06T02:04:52.864Z,9.10
2023-05-06T02:07:19.961Z,9.07
2023-05-06T02:09:46.877Z,9.06
2023-05-06T02:12:14.150Z,9.06
2023-05-06T02:14:41.524Z,9.05
2023-05-06T02:17:08.579Z,9.03
2023-05-06T02:19:35.895Z,9.02
2023-05-06T02:22:02.787Z,9.02
2023-05-06T02:24:29.668Z,9.00
2023-05-06T02:26:56.620Z,8.98
2023-05-06T02:29:23.560Z,8.95
2023-05-06T02:31:50.605Z,8.93
2023-05-06T02:34:17.635Z,8.91
2023-05-06T02:36:44.492Z,8.91
2023-05-06T02:39:12.018Z,8.89
2023-05-06T02:41:39.217Z,8.87
2023-05-06T02:44:06.262Z,8.84
2023-05-06T02:46:33.345Z,8.80
2023-05-06T02:49:01.041Z,8.77
2023-05-06T02:51:27.924Z,8.74
2023-05-06T02:53:54.868Z,8.72
2023-05-06T02:56:21.790Z,8.71
2023-05-06T02:58:49.327Z,8.69
2023-05-06T03:01:16.657Z,8.67
2023-05-06T03:03:44.185Z,8.66
2023-05-06T03:06:11.544Z,8.64
2023-05-06T03:08:38.777Z,8.63
2023-05-06T03:11:07.995Z,8.61
2023-05-06T03:13:36.322Z,8.59
2023-05-06T03:16:03.893Z,8.58
2023-05-06T03:18:31.666Z,8.60
2023-05-06T03:20:59.825Z,8.63
2023-05-06T03:23:27.974Z,8.64
2023-05-06T03:25:55.758Z,8.66
2023-05-06T03:28:23.258Z,8.68
2023-05-06T03:30:51.055Z,8.70
2023-05-06T03:33:18.471Z,8.75
2023-05-06T03:35:45.805Z,8.78
2023-05-06T03:38:13.246Z,8.81
2023-05-06T03:40:54.288Z,8.86
2023-05-06T03:43:21.203Z,8.87
2023-05-06T03:45:49.970Z,8.91
2023-05-06T03:48:16.920Z,8.96
2023-05-06T03:50:44.087Z,9.03
2023-05-06T03:53:12.397Z,9.09
2023-05-06T03:55:40.737Z,9.15
2023-05-06T03:58:08.607Z,9.20
2023-05-06T04:00:36.076Z,9.24
2023-05-06T04:03:03.065Z,9.27
2023-05-06T04:05:34.755Z,9.28
2023-05-06T04:08:02.230Z,9.31
2023-05-06T04:10:29.733Z,9.35
2023-05-06T04:13:02.405Z,9.41
2023-05-06T04:15:36.562Z,9.48
2023-05-06T04:18:08.167Z,9.55
2023-05-06T04:20:36.655Z,9.61
2023-05-06T04:23:04.679Z,9.68
2023-05-06T04:25:33.050Z,9.73
2023-05-06T04:28:01.266Z,9.79
2023-05-06T04:30:28.972Z,9.87
2023-05-06T04:32:56.527Z,9.94
2023-05-06T04:35:24.197Z,10.05
2023-05-06T04:37:56.944Z,10.15
2023-05-06T04:40:28.681Z,10.27
2023-05-06T04:42:56.131Z,10.32
2023-05-06T04:45:26.320Z,10.34
2023-05-06T04:47:54.689Z,10.37
2023-05-06T04:50:22.010Z,10.42
2023-05-06T04:52:49.187Z,10.45
2023-05-06T04:55:17.653Z,10.51
2023-05-06T04:57:47.908Z,10.60
2023-05-06T05:00:16.617Z,10.70
2023-05-06T05:02:44.166Z,10.82
2023-05-06T05:05:12.082Z,10.99
2023-05-06T05:07:40.415Z,11.14
2023-05-06T05:10:09.609Z,11.26
2023-05-06T05:12:37.532Z,11.37
2023-05-06T05:15:05.181Z,11.42
2023-05-06T05:17:32.940Z,11.46
2023-05-06T05:20:01.110Z,11.52
2023-05-06T05:22:29.588Z,11.57
2023-05-06T05:24:56.573Z,11.60
2023-05-06T05:27:24.425Z,11.58
2023-05-06T05:29:51.844Z,11.59
2023-05-06T05:32:20.378Z,11.63
2023-05-06T05:34:47.902Z,11.71
2023-05-06T05:37:15.602Z,11.83
2023-05-06T05:39:43.071Z,12.01
2023-05-06T05:42:11.113Z,12.13
2023-05-06T05:44:39.282Z,12.26
2023-05-06T05:47:07.647Z,12.35
2023-05-06T05:49:35.563Z,12.43
2023-05-06T05:52:03.712Z,12.57
2023-05-06T05:54:31.835Z,12.75
2023-05-06T05:56:59.801Z,12.92
2023-05-06T05:59:27.584Z,13.11
2023-05-06T06:01:58.907Z,13.31
2023-05-06T06:04:26.524Z,13.45
2023-05-06T06:06:53.873Z,13.58
2023-05-06T06:09:21.110Z,13.64
2023-05-06T06:11:48.355Z,13.66
2023-05-06T06:14:16.048Z,13.63
2023-05-06T06:16:43.617Z,13.56
2023-05-06T06:19:11.175Z,13.57
2023-05-06T06:21:38.515Z,13.64
2023-05-06T06:24:06.149Z,13.68
2023-05-06T06:26:33.849Z,13.71
2023-05-06T06:29:01.767Z,13.82
2023-05-06T06:31:29.592Z,14.01
2023-05-06T06:33:57.052Z,14.23
2023-05-06T06:36:24.437Z,14.31
2023-05-06T06:38:51.649Z,14.33
2023-05-06T06:41:18.960Z,14.44
2023-05-06T06:43:46.371Z,14.59
2023-05-06T06:46:24.184Z,14.67
2023-05-06T06:48:51.478Z,14.70
2023-05-06T06:51:18.823Z,14.71
2023-05-06T06:53:48.545Z,14.78
2023-05-06T06:56:16.287Z,14.92
2023-05-06T06:58:43.494Z,14.97
2023-05-06T07:01:11.243Z,15.02
2023-05-06T07:03:38.894Z,15.12
2023-05-06T07:06:06.482Z,15.24
2023-05-06T07:08:34.019Z,15.36
2023-05-06T07:11:01.330Z,15.46
2023-05-06T07:13:28.723Z,15.53
2023-05-06T07:15:56.035Z,15.68
2023-05-06T07:18:23.614Z,15.79
2023-05-06T07:20:51.108Z,15.80
2023-05-06T07:23:18.434Z,15.85
2023-05-06T07:25:46.130Z,16.05
2023-05-06T07:28:13.320Z,16.32
2023-05-06T07:30:40.686Z,16.38
2023-05-06T07:33:07.985Z,16.35
2023-05-06T07:35:35.543Z,16.37
2023-05-06T07:38:02.842Z,16.39
2023-05-06T07:40:30.294Z,16.31
2023-05-06T07:42:57.814Z,16.28
2023-05-06T07:45:25.365Z,16.43
2023-05-06T07:47:52.951Z,16.58
2023-05-06T07:50:20.600Z,16.66
2023-05-06T07:52:48.180Z,16.78
2023-05-06T07:55:15.736Z,16.88
2023-05-06T07:57:43.134Z,17.02
2023-05-06T08:00:11.873Z,17.14
2023-05-06T08:02:45.090Z,17.36
2023-05-06T08:05:13.751Z,17.49
2023-05-06T08:07:41.619Z,17.52
2023-05-06T08:10:09.486Z,17.62
2023-05-06T08:12:37.031Z,17.78
2023-05-06T08:15:04.567Z,17.76
2023-05-06T08:17:32.121Z,17.72
2023-05-06T08:19:59.468Z,17.72
2023-05-06T08:22:27.093Z,17.67
2023-05-06T08:24:55.035Z,17.63
2023-05-06T08:27:22.650Z,17.48
2023-05-06T08:29:50.182Z,17.38
2023-05-06T08:32:17.499Z,17.46
2023-05-06T08:34:44.821Z,17.60
2023-05-06T08:37:12.151Z,17.67
2023-05-06T08:39:39.489Z,17.77
2023-05-06T08:42:06.872Z,17.97
2023-05-06T08:44:34.199Z,18.01
2023-05-06T08:47:01.672Z,17.90
2023-05-06T08:49:29.170Z,17.70
2023-05-06T08:51:57.394Z,17.69
2023-05-06T08:54:27.539Z,17.89
2023-05-06T08:56:54.867Z,18.18
2023-05-06T08:59:24.501Z,18.15
2023-05-06T09:01:52.772Z,18.05
2023-05-06T09:04:19.977Z,18.06
2023-05-06T09:06:47.442Z,18.21
2023-05-06T09:09:15.153Z,18.36
2023-05-06T09:11:42.687Z,18.62
2023-05-06T09:14:14.521Z,18.85
2023-05-06T09:16:47.190Z,18.93
2023-05-06T09:19:14.832Z,19.01
2023-05-06T09:21:46.563Z,19.27
2023-05-06T09:24:14.536Z,19.47
2023-05-06T09:26:42.488Z,19.43
2023-05-06T09:29:09.362Z,19.33
2023-05-06T09:31:46.577Z,19.06
2023-05-06T09:34:14.749Z,19.10
2023-05-06T09:36:42.289Z,19.08
2023-05-06T09:39:10.330Z,19.12
2023-05-06T09:41:37.947Z,19.41
2023-05-06T09:44:06.431Z,19.66
2023-05-06T09:46:33.967Z,19.63
2023-05-06T09:49:01.826Z,19.51
2023-05-06T09:51:31.270Z,19.35
2023-05-06T09:53:58.893Z,19.25
2023-05-06T09:56:26.370Z,19.21
2023-05-06T09:58:54.684Z,19.39
2023-05-06T10:01:35.487Z,19.45
2023-05-06T10:04:05.244Z,19.74
2023-05-06T10:06:33.102Z,20.07
2023-05-06T10:09:01.171Z,20.09
2023-05-06T10:11:31.338Z,19.70
2023-05-06T10:14:00.271Z,19.39
2023-05-06T10:16:28.235Z,19.48
2023-05-06T10:18:55.911Z,19.76
2023-05-06T10:21:25.363Z,20.08
2023-05-06T10:23:57.706Z,20.27
2023-05-06T10:26:25.252Z,20.18
2023-05-06T10:28:53.557Z,20.00
2023-05-06T10:31:21.390Z,20.02
2023-05-06T10:33:49.989Z,20.07
2023-05-06T10:36:20.564Z,20.06
2023-05-06T10:39:00.275Z,20.24
2023-05-06T10:41:30.551Z,20.21
2023-05-06T10:43:57.666Z,20.08
2023-05-06T10:46:26.528Z,20.01
2023-05-06T10:49:05.009Z,20.11
2023-05-06T10:51:32.950Z,20.39
2023-05-06T10:54:03.140Z,20.64
2023-05-06T10:56:41.199Z,20.81
2023-05-06T10:59:09.751Z,20.69
2023-05-06T11:01:37.803Z,20.22
2023-05-06T11:04:11.975Z,19.81
2023-05-06T11:06:46.794Z,19.69
2023-05-06T11:09:21.589Z,19.82
2023-05-06T11:12:02.969Z,19.94
2023-05-06T11:14:35.621Z,19.94
2023-05-06T11:17:05.208Z,20.15
2023-05-06T11:19:34.384Z,20.39
2023-05-06T11:22:04.267Z,20.55
2023-05-06T11:24:38.927Z,20.61
2023-05-06T11:27:06.434Z,20.69
2023-05-06T11:29:34.085Z,20.62
2023-05-06T11:32:01.475Z,20.68
2023-05-06T11:34:30.035Z,20.83
2023-05-06T11:37:08.013Z,20.92
2023-05-06T11:39:40.446Z,21.03
2023-05-06T11:42:09.040Z,20.98
2023-05-06T11:44:37.733Z,20.92
2023-05-06T11:47:06.575Z,20.88
2023-05-06T11:49:42.592Z,20.52
2023-05-06T11:52:10.845Z,20.11
2023-05-06T11:54:42.193Z,20.11
2023-05-06T11:57:09.805Z,20.32
2023-05-06T11:59:39.999Z,20.40
2023-05-06T12:02:13.354Z,20.36
2023-05-06T12:04:45.429Z,20.35
2023-05-06T12:07:14.525Z,20.53
2023-05-06T12:09:49.258Z,20.86
2023-05-06T12:12:22.753Z,21.18
2023-05-06T12:15:11.440Z,21.35
2023-05-06T12:17:38.956Z,21.28
2023-05-06T12:20:07.872Z,21.09
2023-05-06T12:22:35.450Z,20.98
2023-05-06T12:25:15.728Z,20.70
2023-05-06T12:27:43.381Z,20.41
2023-05-06T12:30:11.834Z,20.26
2023-05-06T12:33:07.887Z,20.31
2023-05-06T12:35:35.403Z,20.51
2023-05-06T12:38:08.966Z,20.59
2023-05-06T12:40:36.801Z,20.77
2023-05-06T12:43:04.394Z,20.85
2023-05-06T12:45:32.052Z,20.88
2023-05-06T12:48:02.445Z,20.90
2023-05-06T12:50:40.478Z,21.01
2023-05-06T12:53:10.254Z,21.36
2023-05-06T12:55:38.176Z,21.60
2023-05-06T12:58:15.906Z,21.60
2023-05-06T13:00:43.534Z,21.54
2023-05-06T13:03:13.913Z,21.32
2023-05-06T13:05:41.808Z,20.95
2023-05-06T13:08:09.097Z,20.94
2023-05-06T13:10:36.812Z,20.86
2023-05-06T13:13:05.167Z,20.86
2023-05-06T13:15:32.676Z,20.84
2023-05-06T13:18:00.072Z,20.96
2023-05-06T13:20:27.522Z,21.18
2023-05-06T13:22:55.394Z,21.40
2023-05-06T13:25:23.236Z,21.50
2023-05-06T13:27:50.889Z,21.51
2023-05-06T13:30:18.300Z,21.48
2023-05-06T13:32:46.283Z,21.42
2023-05-06T13:35:13.589Z,21.20
2023-05-06T13:37:40.867Z,21.11
2023-05-06T13:40:09.653Z,21.33
2023-05-06T13:42:37.185Z,21.53
2023-05-06T13:45:04.896Z,21.72
2023-05-06T13:47:32.523Z,21.84
2023-05-06T13:50:00.991Z,21.99
2023-05-06T13:52:28.481Z,21.99
2023-05-06T13:54:57.053Z,21.78
2023-05-06T13:57:26.100Z,21.64
2023-05-06T13:59:53.468Z,21.65
2023-05-06T14:02:20.944Z,21.56
2023-05-06T14:04:48.438Z,21.39
2023-05-06T14:07:16.072Z,21.18
2023-05-06T14:09:43.513Z,21.19
2023-05-06T14:12:11.182Z,21.34
2023-05-06T14:14:38.954Z,21.54
2023-05-06T14:17:06.416Z,21.69
2023-05-06T14:19:33.934Z,21.79
2023-05-06T14:22:01.294Z,21.75
2023-05-06T14:24:28.908Z,21.47
2023-05-06T14:26:56.557Z,21.22
2023-05-06T14:29:24.000Z,20.92
2023-05-06T14:31:53.358Z,20.55
2023-05-06T14:34:20.706Z,20.33
2023-05-06T14:36:48.063Z,20.20
2023-05-06T14:39:15.792Z,20.30
2023-05-06T14:41:43.335Z,20.53
2023-05-06T14:44:10.827Z,20.57
2023-05-06T14:46:38.204Z,20.63
2023-05-06T14:49:05.539Z,20.86
2023-05-06T14:51:34.526Z,21.08
2023-05-06T14:54:02.341Z,21.03
2023-05-06T14:56:30.015Z,20.88
2023-05-06T14:58:57.474Z,20.70
2023-05-06T15:01:24.985Z,20.58
2023-05-06T15:03:53.458Z,20.49
2023-05-06T15:06:20.907Z,20.63
2023-05-06T15:08:48.306Z,20.44
2023-05-06T15:11:15.786Z,20.15
2023-05-06T15:13:43.183Z,19.76
2023-05-06T15:16:11.552Z,19.40
2023-05-06T15:18:41.892Z,19.22
2023-05-06T15:21:09.448Z,19.28
2023-05-06T15:23:37.687Z,19.59
2023-05-06T15:26:05.675Z,19.94
2023-05-06T15:28:33.137Z,20.11
2023-05-06T15:31:00.609Z,20.03
2023-05-06T15:33:28.091Z,20.18
2023-05-06T15:35:55.604Z,20.37
2023-05-06T15:38:23.761Z,20.44
2023-05-06T15:40:51.709Z,20.27
2023-05-06T15:43:23.716Z,19.94
2023-05-06T15:45:51.610Z,19.45
2023-05-06T15:48:19.237Z,18.93
2023-05-06T15:50:46.639Z,18.54
2023-05-06T15:53:14.041Z,18.19
2023-05-06T15:55:45.183Z,17.88
2023-05-06T15:58:17.148Z,17.70
2023-05-06T16:00:44.465Z,17.53
2023-05-06T16:03:12.644Z,17.29
2023-05-06T16:05:39.918Z,17.09
2023-05-06T16:08:06.818Z,17.02
2023-05-06T16:10:35.698Z,17.13
2023-05-06T16:13:03.185Z,17.14
2023-05-06T16:15:31.251Z,17.02
2023-05-06T16:17:58.670Z,16.86
2023-05-06T16:20:26.818Z,16.72
2023-05-06T16:22:54.282Z,16.75
2023-05-06T16:25:22.286Z,16.80
2023-05-06T16:27:49.857Z,16.83
2023-05-06T16:30:18.057Z,16.55
2023-05-06T16:32:45.770Z,16.27
2023-05-06T16:35:13.301Z,16.05
2023-05-06T16:37:40.739Z,15.78
2023-05-06T16:40:09.924Z,15.47
2023-05-06T16:42:37.736Z,15.20
2023-05-06T16:45:06.886Z,14.95
2023-05-06T16:47:34.456Z,14.71
2023-05-06T16:50:02.314Z,14.48
2023-05-06T16:52:30.880Z,14.29
2023-05-06T16:54:58.534Z,14.08
2023-05-06T16:57:26.137Z,13.88
2023-05-06T16:59:53.481Z,13.73
2023-05-06T17:02:21.867Z,13.59
2023-05-06T17:05:00.181Z,13.45
2023-05-06T17:07:34.950Z,13.32
2023-05-06T17:10:02.211Z,13.21
2023-05-06T17:12:29.708Z,13.11
2023-05-06T17:14:56.843Z,12.99
2023-05-06T17:17:28.598Z,12.90
2023-05-06T17:19:57.727Z,12.82
2023-05-06T17:22:27.175Z,12.74
2023-05-06T17:24:54.556Z,12.67
2023-05-06T17:27:21.826Z,12.60
2023-05-06T17:29:49.324Z,12.49
2023-05-06T17:32:16.725Z,12.39
2023-05-06T17:34:44.201Z,12.30
2023-05-06T17:37:11.611Z,12.19
2023-05-06T17:39:40.092Z,12.09
2023-05-06T17:42:08.561Z,12.00
2023-05-06T17:44:38.272Z,11.91
2023-05-06T17:47:05.584Z,11.81
2023-05-06T17:49:34.642Z,11.74
2023-05-06T17:52:02.196Z,11.65
2023-05-06T17:54:32.707Z,11.57
2023-05-06T17:57:01.237Z,11.49
2023-05-06T17:59:29.653Z,11.41
2023-05-06T18:01:57.004Z,11.32
2023-05-06T18:04:24.567Z,11.23
2023-05-06T18:06:52.036Z,11.15
2023-05-06T18:09:19.867Z,11.07
2023-05-06T18:11:47.394Z,11.00
2023-05-06T18:14:15.461Z,10.93
2023-05-06T18:16:42.845Z,10.86
2023-05-06T18:19:10.424Z,10.79
2023-05-06T18:21:37.901Z,10.72
2023-05-06T18:24:15.226Z,10.65
2023-05-06T18:26:45.782Z,10.57
2023-05-06T18:29:13.794Z,10.49
2023-05-06T18:31:41.404Z,10.42
2023-05-06T18:34:08.690Z,10.35
2023-05-06T18:36:36.711Z,10.28
2023-05-06T18:39:05.752Z,10.22
2023-05-06T18:41:32.623Z,10.17
2023-05-06T18:43:59.975Z,10.12
2023-05-06T18:46:27.749Z,10.08
2023-05-06T18:48:56.400Z,10.04
2023-05-06T18:51:23.905Z,9.99
2023-05-06T18:53:51.324Z,9.93
2023-05-06T18:56:18.621Z,9.86
2023-05-06T18:58:46.021Z,9.79
2023-05-06T19:01:13.413Z,9.74
2023-05-06T19:03:41.913Z,9.68
2023-05-06T19:06:09.410Z,9.63
2023-05-06T19:08:36.900Z,9.56
2023-05-06T19:11:04.438Z,9.52
2023-05-06T19:13:31.804Z,9.46
2023-05-06T19:15:59.388Z,9.40
2023-05-06T19:18:27.061Z,9.36
2023-05-06T19:20:55.980Z,9.31
2023-05-06T19:23:23.370Z,9.27
2023-05-06T19:25:50.810Z,9.23
2023-05-06T19:28:18.239Z,9.18
2023-05-06T19:30:46.038Z,9.12
2023-05-06T19:33:13.343Z,9.09
2023-05-06T19:35:40.896Z,9.04
2023-05-06T19:38:08.484Z,8.99
2023-05-06T19:40:35.954Z,8.93
2023-05-06T19:43:06.279Z,8.87
2023-05-06T19:45:33.918Z,8.82
2023-05-06T19:48:01.551Z,8.76
2023-05-06T19:50:28.943Z,8.71
2023-05-06T19:52:56.354Z,8.67
2023-05-06T19:55:23.808Z,8.62
2023-05-06T19:57:51.178Z,8.58
2023-05-06T20:00:20.257Z,8.53
2023-05-06T20:02:47.640Z,8.48
2023-05-06T20:05:15.108Z,8.43
2023-05-06T20:07:43.896Z,8.38
2023-05-06T20:10:14.009Z,8.33
2023-05-06T20:12:44.011Z,8.28
2023-05-06T20:15:11.472Z,8.22
2023-05-06T20:17:38.893Z,8.18
2023-05-06T20:20:10.059Z,8.12
2023-05-06T20:22:40.123Z,8.06
2023-05-06T20:25:12.336Z,8.01
2023-05-06T20:27:39.414Z,7.96
2023-05-06T20:30:08.236Z,7.90
2023-05-06T20:32:40.505Z,7.85
2023-05-06T20:35:08.172Z,7.81
2023-05-06T20:37:36.656Z,7.77
2023-05-06T20:40:06.861Z,7.73
2023-05-06T20:42:34.754Z,7.70
2023-05-06T20:45:02.455Z,7.66
2023-05-06T20:47:30.096Z,7.62
2023-05-06T20:49:58.323Z,7.57
2023-05-06T20:52:25.775Z,7.52
2023-05-06T20:54:53.239Z,7.48
2023-05-06T20:57:21.316Z,7.44
2023-05-06T20:59:51.318Z,7.40
2023-05-06T21:02:18.811Z,7.36
2023-05-06T21:04:46.309Z,7.32
2023-05-06T21:07:13.717Z,7.27
2023-05-06T21:09:41.308Z,7.24
2023-05-06T21:12:08.794Z,7.20
2023-05-06T21:14:36.621Z,7.15
2023-05-06T21:17:04.203Z,7.10
2023-05-06T21:19:31.693Z,7.06
2023-05-06T21:21:59.239Z,7.02
2023-05-06T21:24:41.674Z,6.98
2023-05-06T21:27:18.412Z,6.93
2023-05-06T21:29:45.960Z,6.88
2023-05-06T21:32:13.850Z,6.84
2023-05-06T21:34:41.317Z,6.81
2023-05-06T21:37:08.708Z,6.77
2023-05-06T21:39:51.404Z,6.72
2023-05-06T21:42:19.509Z,6.68
2023-05-06T21:44:47.006Z,6.65
2023-05-06T21:47:17.802Z,6.63
2023-05-06T21:49:47.828Z,6.60
2023-05-06T21:52:15.684Z,6.58
2023-05-06T21:54:49.900Z,6.55
2023-05-06T21:57:17.302Z,6.52
2023-05-06T21:59:47.244Z,6.48
2023-05-06T22:02:15.157Z,6.44
2023-05-06T22:04:42.638Z,6.41
2023-05-06T22:07:10.036Z,6.38
2023-05-06T22:09:37.507Z,6.36
2023-05-06T22:12:06.992Z,6.33
2023-05-06T22:14:41.229Z,6.29
2023-05-06T22:17:10.838Z,6.25
2023-05-06T22:19:38.864Z,6.20
2023-05-06T22:22:06.841Z,6.16
2023-05-06T22:24:34.347Z,6.12
2023-05-06T22:27:02.145Z,6.10
2023-05-06T22:29:29.792Z,6.09
2023-05-06T22:31:57.275Z,6.08
2023-05-06T22:34:24.931Z,6.05
2023-05-06T22:36:53.533Z,6.01
2023-05-06T22:39:20.924Z,5.98
2023-05-06T22:41:50.509Z,5.95
2023-05-06T22:44:17.787Z,5.89
2023-05-06T22:46:45.153Z,5.85
2023-05-06T22:49:12.534Z,5.82
2023-05-06T22:51:40.120Z,5.78
2023-05-06T22:54:07.822Z,5.75
2023-05-06T22:56:35.685Z,5.73
2023-05-06T22:59:03.500Z,5.70
2023-05-06T23:01:32.525Z,5.67
2023-05-06T23:04:00.091Z,5.63
2023-05-06T23:06:28.133Z,5.61
2023-05-06T23:08:55.473Z,5.56
2023-05-06T23:11:22.819Z,5.51
2023-05-06T23:13:52.909Z,5.47
2023-05-06T23:16:20.365Z,5.42
2023-05-06T23:18:47.705Z,5.37
2023-05-06T23:21:15.467Z,5.33
2023-05-06T23:23:42.967Z,5.29
2023-05-06T23:26:10.411Z,5.26
2023-05-06T23:28:38.037Z,5.23
2023-05-06T23:31:05.541Z,5.20
2023-05-06T23:33:32.972Z,5.18
2023-05-06T23:36:00.941Z,5.16
2023-05-06T23:38:28.772Z,5.14
2023-05-06T23:40:56.116Z,5.12
2023-05-06T23:43:23.596Z,5.11
2023-05-06T23:45:51.326Z,5.09
2023-05-06T23:48:18.834Z,5.08
2023-05-06T23:50:46.199Z,5.08
2023-05-06T23:53:13.781Z,5.07
2023-05-06T23:55:42.913Z,5.05
2023-05-06T23:58:10.588Z,5.02
